Time;durP1;ratioP1;P1;durP2;ratioP2;P2;SDS_P1;SDS_P2;PMS_P1;PMS_P2;Temp;Humidity;BMP_temperature;BMP_pressure;BME280_temperature;BME280_humidity;BME280_pressure;Samples;Min_cycle;Max_cycle;Signal;HPM_P1;HPM_P2
2022/09/04 00:00:57;;;;;;;2.27;1.87;;;16.50;2.00;;;16.56;49.79;101373.66;4930022;29;20962;-73
2022/09/04 00:03:41;;;;;;;14.80;2.00;;;16.40;2.20;;;16.51;50.02;101368.88;4945699;29;20423;-72
2022/09/04 00:06:20;;;;;;;1.77;1.37;;;16.30;2.50;;;16.47;50.17;101360.31;4937604;29;20428;-73
2022/09/04 00:09:07;;;;;;;4.67;2.13;;;16.30;2.70;;;16.41;50.36;101368.63;4931269;29;20438;-73
2022/09/04 00:11:49;;;;;;;2.43;1.80;;;16.20;2.90;;;16.35;50.66;101372.25;4944575;28;20952;-73
2022/09/04 00:14:39;;;;;;;1.50;1.40;;;16.20;3.20;;;16.24;50.52;101373.00;4925897;29;20503;-73
2022/09/04 00:17:19;;;;;;;3.83;1.67;;;16.10;3.40;;;16.22;51.02;101370.50;4934797;29;20470;-72
2022/09/04 00:19:58;;;;;;;3.50;1.80;;;16.00;3.70;;;16.16;51.17;101362.41;4938064;29;20522;-74
2022/09/04 00:22:35;;;;;;;2.50;1.90;;;16.00;4.00;;;16.19;51.17;101361.94;4950480;28;20515;-72
2022/09/04 00:25:17;;;;;;;2.50;2.30;;;16.00;4.10;;;16.16;51.33;101365.13;4935602;29;20531;-74
2022/09/04 00:27:53;;;;;;;4.53;2.00;;;15.90;4.20;;;16.05;51.64;101361.25;4934532;28;20452;-73
2022/09/04 00:30:23;;;;;;;2.10;1.73;;;15.90;4.40;;;16.03;51.72;101364.22;4940433;29;20414;-74
2022/09/04 00:33:06;;;;;;;2.87;1.80;;;15.90;4.70;;;16.02;51.70;101368.00;4936429;29;20435;-72
2022/09/04 00:35:43;;;;;;;5.40;2.27;;;15.80;4.90;;;16.02;51.96;101376.19;4940446;29;20456;-72
2022/09/04 00:38:32;;;;;;;3.00;1.60;;;15.80;5.10;;;16.00;51.80;101381.06;4938469;29;20510;-72
2022/09/04 00:41:15;;;;;;;6.03;2.07;;;15.80;5.20;;;15.93;52.05;101377.53;4947288;29;20438;-73
2022/09/04 00:44:27;;;;;;;2.60;1.40;;;15.80;5.40;;;15.81;52.35;101371.16;4943061;29;20446;-74
2022/09/04 00:47:42;;;;;;;2.30;1.57;;;15.70;5.60;;;15.76;52.66;101376.47;4949111;29;20524;-73
2022/09/04 00:50:34;;;;;;;2.20;1.80;;;15.60;6.00;;;15.80;52.58;101377.69;4944688;29;20447;-73
2022/09/04 00:53:31;;;;;;;2.00;1.67;;;15.60;6.10;;;15.72;52.72;101382.59;4930727;29;20526;-73
2022/09/04 00:56:24;;;;;;;2.10;1.63;;;15.60;6.40;;;15.68;52.92;101387.69;4935159;29;20866;-73
2022/09/04 00:59:14;;;;;;;1.77;1.67;;;15.50;6.50;;;15.64;53.05;101391.88;4937500;29;20468;-74
2022/09/04 01:01:46;;;;;;;2.43;1.70;;;15.50;6.70;;;15.64;52.92;101392.72;4933852;29;21076;-73
2022/09/04 01:04:40;;;;;;;3.23;1.73;;;15.50;6.90;;;15.59;53.16;101391.72;4932883;29;20448;-73
2022/09/04 01:07:34;;;;;;;3.40;1.63;;;15.40;7.00;;;15.51;53.18;101398.31;4945445;29;20422;-74
2022/09/04 01:10:22;;;;;;;1.70;1.40;;;15.40;7.30;;;15.56;53.10;101397.63;4932671;29;20857;-73
2022/09/04 01:13:03;;;;;;;2.00;1.00;;;15.40;7.40;;;15.55;53.20;101398.69;4933909;29;20559;-73
2022/09/04 01:15:41;;;;;;;3.20;1.47;;;15.40;7.50;;;15.58;53.13;101403.72;4933222;29;20452;-72
2022/09/04 01:18:18;;;;;;;2.80;1.27;;;15.40;7.50;;;15.57;53.14;101402.03;4934624;29;20936;-73
2022/09/04 01:21:18;;;;;;;3.17;1.53;;;15.40;7.60;;;15.62;53.01;101407.66;4934980;29;20438;-73
2022/09/04 01:24:22;;;;;;;4.50;1.60;;;15.40;7.50;;;15.65;52.91;101394.41;4958668;23;20523;-74
2022/09/04 01:27:04;;;;;;;2.80;1.50;;;15.50;7.60;;;15.68;52.97;101403.22;4952903;28;20796;-73
2022/09/04 01:29:49;;;;;;;4.50;1.50;;;15.40;7.50;;;15.65;52.79;101405.31;4951490;28;20599;-74
2022/09/04 01:32:41;;;;;;;2.67;1.43;;;15.50;7.50;;;15.61;52.91;101409.56;4953626;28;20414;-77
2022/09/04 01:35:26;;;;;;;2.43;1.53;;;15.40;7.60;;;15.61;52.79;101408.72;4954288;28;20441;-74
2022/09/04 01:38:12;;;;;;;2.40;1.07;;;15.40;7.40;;;15.63;52.74;101407.44;4947911;28;20430;-72
2022/09/04 01:40:49;;;;;;;1.90;1.27;;;15.40;7.60;;;15.57;52.88;101407.50;4963479;28;20453;-75
2022/09/04 01:43:23;;;;;;;2.30;1.50;;;15.40;7.60;;;15.49;53.06;101403.09;4947436;28;20410;-74
2022/09/04 01:46:37;;;;;;;2.30;1.47;;;15.30;7.80;;;15.56;52.93;101400.34;4953911;28;20520;-73
2022/09/04 01:49:20;;;;;;;3.47;2.00;;;15.30;7.80;;;15.49;52.90;101405.03;4946832;28;20453;-74
2022/09/04 01:52:03;;;;;;;2.80;1.57;;;15.30;7.90;;;15.43;53.14;101403.16;4949056;28;20451;-74
2022/09/04 01:54:49;;;;;;;3.70;1.57;;;15.30;7.90;;;15.36;53.31;101394.19;4950163;28;20443;-72
2022/09/04 01:57:51;;;;;;;2.80;1.10;;;15.20;8.00;;;15.33;53.26;101397.38;4951355;28;20462;-73
2022/09/04 02:00:24;;;;;;;1.77;1.00;;;15.20;8.30;;;15.25;53.61;101403.09;4946191;28;20450;-74
2022/09/04 02:03:05;;;;;;;2.30;1.10;;;15.10;8.40;;;15.28;53.54;101405.38;4955614;28;20431;-75
2022/09/04 02:05:55;;;;;;;2.60;1.50;;;15.10;8.50;;;15.28;53.37;101402.66;4946057;28;20907;-73
2022/09/04 02:08:50;;;;;;;1.27;1.07;;;15.10;8.50;;;15.22;53.58;101401.63;4951125;28;20442;-75
2022/09/04 02:11:25;;;;;;;5.23;1.77;;;15.10;8.60;;;15.23;53.53;101400.59;4945923;28;20411;-73
2022/09/04 02:14:31;;;;;;;2.43;1.20;;;15.10;8.60;;;15.15;53.79;101404.41;4951859;28;20512;-73
2022/09/04 02:17:11;;;;;;;1.57;1.20;;;15.00;8.80;;;15.05;53.90;101398.63;4959639;28;20433;-74
2022/09/04 02:20:07;;;;;;;4.33;1.30;;;15.00;9.00;;;15.08;53.95;101392.72;4947543;28;20808;-73
2022/09/04 02:22:50;;;;;;;3.17;1.27;;;14.90;9.10;;;15.09;53.84;101394.41;4942155;28;20519;-72
2022/09/04 02:25:30;;;;;;;2.60;1.40;;;14.90;9.20;;;15.11;53.86;101403.16;4948991;28;20467;-74
2022/09/04 02:28:22;;;;;;;1.60;1.10;;;14.90;9.30;;;14.95;54.28;101402.88;4950682;28;20457;-74
2022/09/04 02:31:04;;;;;;;2.33;1.43;;;14.80;9.30;;;14.94;54.09;101404.75;4950897;28;20428;-75
2022/09/04 02:33:43;;;;;;;3.10;1.70;;;14.80;9.50;;;14.87;54.38;101406.66;4946111;28;20457;-73
2022/09/04 02:36:21;;;;;;;2.57;1.50;;;14.80;9.70;;;14.91;54.16;101402.44;4951066;28;20418;-72
2022/09/04 02:39:03;;;;;;;6.13;1.90;;;14.70;9.80;;;14.84;54.45;101407.13;4947894;28;20443;-74
2022/09/04 02:41:49;;;;;;;2.30;1.33;;;14.70;10.00;;;14.82;54.71;101398.31;4947584;28;20457;-74
2022/09/04 02:44:37;;;;;;;2.27;1.40;;;14.70;10.20;;;14.79;54.77;101405.03;4945611;28;20467;-75
2022/09/04 02:47:23;;;;;;;1.50;1.23;;;14.60;10.30;;;14.82;54.70;101403.75;4942526;28;20429;-75
2022/09/04 02:50:09;;;;;;;5.60;1.40;;;14.60;10.40;;;14.73;54.82;101405.06;4951357;28;20471;-75
2022/09/04 02:53:08;;;;;;;2.13;1.30;;;14.60;10.50;;;14.71;54.94;101408.03;4950054;28;20449;-74
2022/09/04 02:56:08;;;;;;;1.53;1.20;;;14.60;10.70;;;14.66;55.04;101409.72;4959729;28;20414;-73
2022/09/04 02:58:57;;;;;;;2.23;1.50;;;14.50;10.80;;;14.66;55.11;101409.72;4953256;28;20434;-74
2022/09/04 03:01:37;;;;;;;1.90;1.43;;;14.50;11.00;;;14.59;55.19;101407.03;4975231;28;20538;-75
2022/09/04 03:04:22;;;;;;;2.47;1.47;;;14.50;11.20;;;14.65;55.05;101408.88;4968171;28;20547;-75
2022/09/04 03:07:03;;;;;;;5.93;1.60;;;14.50;11.30;;;14.63;55.16;101400.09;4973901;28;20450;-77
2022/09/04 03:09:40;;;;;;;2.70;1.70;;;14.50;11.50;;;14.63;55.23;101401.97;4983478;28;20497;-76
2022/09/04 03:12:34;;;;;;;3.10;1.63;;;14.50;11.50;;;14.49;55.76;101403.09;4963324;28;20421;-75
2022/09/04 03:15:17;;;;;;;1.80;1.30;;;14.40;11.80;;;14.44;55.87;101403.72;4950644;28;20531;-73
2022/09/04 03:17:58;;;;;;;2.10;1.47;;;14.40;12.20;;;14.34;56.10;101406.88;4958336;28;20478;-76
2022/09/04 03:20:32;;;;;;;4.63;2.23;;;14.30;12.60;;;14.34;56.24;101404.16;4955296;28;20418;-73
2022/09/04 03:23:15;;;;;;;1.70;1.40;;;14.30;12.90;;;14.26;56.31;101404.41;4949246;28;20433;-75
2022/09/04 03:26:05;;;;;;;2.80;1.67;;;14.20;13.20;;;14.30;56.54;101405.63;4957368;28;20453;-75
2022/09/04 03:29:01;;;;;;;1.80;1.50;;;14.20;13.50;;;14.18;56.83;101418.25;4954635;28;20509;-74
2022/09/04 03:31:40;;;;;;;4.60;2.13;;;14.10;13.80;;;14.14;56.98;101416.13;4942916;28;20444;-75
2022/09/04 03:34:37;;;;;;;3.93;1.50;;;14.10;14.30;;;14.07;57.19;101416.16;4962003;28;20478;-74
2022/09/04 03:37:32;;;;;;;1.63;0.90;;;14.00;14.80;;;14.04;57.26;101415.75;4959642;28;20439;-73
2022/09/04 03:40:19;;;;;;;3.43;1.30;;;13.90;15.00;;;13.96;57.40;101414.09;4953385;28;20443;-73
2022/09/04 03:43:20;;;;;;;2.17;1.17;;;13.90;15.40;;;13.90;57.47;101414.91;4953519;28;20454;-72
2022/09/04 03:46:06;;;;;;;1.73;1.20;;;13.80;15.90;;;13.97;57.38;101414.94;4951316;28;20424;-75
2022/09/04 03:48:54;;;;;;;2.20;1.17;;;13.80;15.90;;;13.80;57.95;101422.69;4948698;28;20455;-72
2022/09/04 03:51:43;;;;;;;2.73;1.30;;;13.70;16.20;;;13.79;58.09;101418.31;4954002;28;20423;-72
2022/09/04 03:54:34;;;;;;;2.67;1.30;;;13.70;16.80;;;13.77;57.98;101428.56;4952269;28;20467;-73
2022/09/04 03:57:25;;;;;;;1.63;1.20;;;13.70;17.00;;;13.76;58.09;101425.00;4957562;28;20443;-73
2022/09/04 04:00:10;;;;;;;2.90;1.70;;;13.60;17.40;;;13.74;58.11;101423.53;4953073;28;20542;-73
2022/09/04 04:03:06;;;;;;;1.93;1.37;;;13.60;17.40;;;13.66;58.06;101429.16;4949012;28;20489;-72
2022/09/04 04:05:48;;;;;;;4.40;1.10;;;13.60;17.80;;;13.64;58.26;101432.13;4955515;28;20494;-74
2022/09/04 04:08:55;;;;;;;1.83;1.30;;;13.50;18.20;;;13.58;58.38;101432.09;4952600;28;20554;-74
2022/09/04 04:11:54;;;;;;;2.20;1.13;;;13.50;18.40;;;13.60;58.07;101435.47;4953324;28;20410;-72
2022/09/04 04:15:09;;;;;;;5.43;1.30;;;13.50;18.50;;;13.47;58.55;101431.69;4948102;28;20532;-73
2022/09/04 04:18:12;;;;;;;2.97;1.43;;;13.40;18.90;;;13.55;58.28;101436.09;4949535;28;20430;-73
2022/09/04 04:20:54;;;;;;;3.20;1.10;;;13.40;19.30;;;13.43;58.35;101429.59;4954317;28;20439;-71
2022/09/04 04:24:11;;;;;;;2.03;1.30;;;13.40;19.60;;;13.42;58.63;101439.63;4950043;28;20434;-72
2022/09/04 04:27:02;;;;;;;1.60;1.03;;;13.30;19.90;;;13.41;58.69;101437.94;4923864;28;20471;-74
2022/09/04 04:30:04;;;;;;;1.87;1.17;;;13.30;20.20;;;13.44;58.68;101445.69;4952840;28;20459;-75
2022/09/04 04:33:23;;;;;;;2.60;1.47;;;13.30;20.40;;;13.42;58.62;101445.06;4952224;28;20421;-73
2022/09/04 04:36:08;;;;;;;1.87;1.23;;;13.30;20.50;;;13.37;58.85;101446.72;4891313;29;20481;-73
2022/09/04 04:38:55;;;;;;;2.00;1.50;;;13.30;20.70;;;13.38;58.88;101454.69;4889886;29;20451;-73
2022/09/04 04:47:39;;;;;;;1.73;1.10;;;13.20;21.50;;;13.47;58.96;101456.16;4952490;28;20417;-72
2022/09/04 04:50:20;;;;;;;2.07;1.20;;;13.30;22.10;;;13.38;58.72;101459.28;4947716;29;20446;-74
2022/09/04 04:53:05;;;;;;;2.30;1.57;;;13.30;21.60;;;13.39;58.70;101450.09;4953030;28;20477;-74
2022/09/04 04:55:48;;;;;;;3.67;1.33;;;13.30;21.80;;;13.43;58.32;101457.63;4948940;28;20443;-74
2022/09/04 04:58:47;;;;;;;1.63;1.40;;;13.30;21.90;;;14.20;57.03;101465.13;4953886;28;20414;-75
2022/09/04 05:01:35;;;;;;;1.77;1.13;;;13.50;21.80;;;15.32;53.79;101469.31;4952043;29;20443;-75
2022/09/04 05:04:22;;;;;;;1.67;1.07;;;14.00;19.40;;;16.02;51.75;101474.47;4948832;28;20511;-73
2022/09/04 05:07:01;;;;;;;2.60;1.20;;;14.70;17.00;;;16.65;50.12;101478.91;4953058;28;20422;-72
2022/09/04 05:09:44;;;;;;;2.27;1.20;;;15.10;14.70;;;17.21;48.34;101481.34;4954834;28;20474;-74
2022/09/04 05:12:26;;;;;;;3.10;1.60;;;15.60;12.60;;;16.62;49.42;101498.47;4947696;28;20474;-73
2022/09/04 05:15:05;;;;;;;1.60;1.00;;;15.60;12.00;;;16.51;49.38;101500.03;4952155;28;20467;-75
2022/09/04 05:17:44;;;;;;;1.50;1.13;;;15.60;11.60;;;15.52;51.80;101511.81;4949516;28;20452;-73
2022/09/04 05:20:29;;;;;;;2.43;1.67;;;15.20;12.00;;;14.60;54.35;101506.75;4957218;28;20990;-72
2022/09/04 05:23:13;;;;;;;3.30;1.60;;;14.70;13.30;;;14.31;55.41;101505.31;4947527;28;20832;-72
2022/09/04 05:25:53;;;;;;;3.20;1.73;;;14.30;15.30;;;14.22;55.80;101512.03;4951281;28;20811;-74
2022/09/04 05:28:38;;;;;;;2.23;1.37;;;14.10;15.70;;;14.23;56.06;101516.41;4964493;28;20821;-72
2022/09/04 05:31:24;;;;;;;3.43;1.67;;;14.10;16.80;;;14.28;56.15;101522.06;4951314;28;20438;-75
2022/09/04 05:34:05;;;;;;;1.93;1.30;;;14.10;16.90;;;14.26;55.90;101524.19;4951789;28;20868;-74
2022/09/04 05:36:56;;;;;;;2.90;1.93;;;14.10;17.00;;;14.29;55.74;101529.19;4948615;28;20429;-73
2022/09/04 05:39:32;;;;;;;2.60;1.50;;;14.10;17.00;;;14.37;55.61;101535.50;4948298;28;20440;-73
2022/09/04 05:42:42;;;;;;;2.20;1.83;;;14.10;16.80;;;14.40;55.52;101543.25;4946210;28;20426;-73
2022/09/04 05:45:24;;;;;;;2.53;1.30;;;14.20;16.90;;;14.45;55.49;101544.28;4939840;28;20930;-73
2022/09/04 05:48:15;;;;;;;2.73;1.50;;;14.30;16.60;;;14.52;55.54;101555.19;4947855;28;20422;-75
2022/09/04 05:51:07;;;;;;;1.40;1.07;;;14.30;16.50;;;14.61;55.18;101546.56;4950133;28;20477;-74
2022/09/04 05:54:19;;;;;;;1.90;1.70;;;14.40;16.40;;;14.68;55.05;101555.56;4946647;28;20529;-73
2022/09/04 05:57:29;;;;;;;2.83;1.33;;;14.50;16.10;;;14.83;54.54;101552.56;4956605;28;20554;-75
2022/09/04 06:00:18;;;;;;;2.37;1.63;;;14.50;16.00;;;14.90;54.52;101564.31;4945446;28;20442;-75
2022/09/04 06:03:42;;;;;;;2.90;2.47;;;14.70;15.90;;;15.00;54.30;101570.16;4952948;28;20495;-73
2022/09/04 06:06:22;;;;;;;4.17;1.60;;;14.80;15.60;;;15.08;54.21;101569.06;4942983;28;20421;-74
2022/09/04 06:09:32;;;;;;;1.87;1.47;;;14.90;15.40;;;15.29;53.86;101567.94;4955779;28;20979;-74
2022/09/04 06:12:39;;;;;;;3.00;2.00;;;15.00;15.00;;;15.41;53.63;101579.81;4949852;29;20441;-74
2022/09/04 06:15:31;;;;;;;3.57;1.97;;;15.20;14.90;;;15.41;53.41;101577.09;4947811;28;20448;-74
2022/09/04 06:18:32;;;;;;;1.90;1.60;;;15.20;14.20;;;15.56;52.97;101572.22;4949431;28;20829;-74
2022/09/04 06:21:39;;;;;;;2.67;1.70;;;15.30;14.00;;;15.60;52.98;101563.38;4960786;28;20437;-74
2022/09/04 06:24:37;;;;;;;1.80;1.60;;;15.40;13.90;;;15.79;52.89;101569.75;4951716;28;20437;-74
2022/09/04 06:27:45;;;;;;;3.20;2.17;;;15.50;13.80;;;15.93;52.76;101576.81;4954568;28;20425;-73
2022/09/04 06:30:16;;;;;;;1.90;1.57;;;15.70;13.80;;;15.97;52.41;101569.88;4954568;28;20499;-74
2022/09/04 06:33:22;;;;;;;4.63;2.50;;;15.70;13.20;;;16.03;52.47;101571.69;4951340;28;20729;-72
2022/09/04 06:36:26;;;;;;;6.30;1.67;;;15.80;13.20;;;16.17;52.27;101577.88;4954865;28;20440;-73
2022/09/04 06:39:30;;;;;;;3.47;1.70;;;15.90;13.10;;;15.98;52.76;101579.69;4955059;28;20421;-73
2022/09/04 06:42:21;;;;;;;2.43;1.37;;;15.80;13.10;;;15.93;53.05;101574.06;4952039;28;20482;-72
2022/09/04 06:45:11;;;;;;;4.47;2.57;;;15.80;13.30;;;15.88;53.30;101584.81;4948994;28;20790;-73
2022/09/04 06:48:03;;;;;;;3.73;1.90;;;15.70;14.10;;;15.98;53.24;101584.31;4955908;28;20873;-73
2022/09/04 06:50:49;;;;;;;3.47;2.30;;;15.70;14.00;;;16.17;52.75;101590.72;4957978;28;20788;-74
2022/09/04 06:53:37;;;;;;;2.60;1.93;;;15.80;13.90;;;16.56;51.98;101589.50;4953717;28;20417;-74
2022/09/04 06:56:34;;;;;;;3.60;2.63;;;16.10;13.70;;;16.59;52.01;101589.94;4963263;28;20444;-72
2022/09/04 06:59:55;;;;;;;3.90;2.40;;;16.30;13.10;;;16.75;52.11;101591.28;4961966;28;20460;-75
2022/09/04 07:03:00;;;;;;;3.70;2.97;;;16.40;12.90;;;16.95;51.65;101602.81;4920092;28;20446;-72
2022/09/04 07:05:42;;;;;;;4.50;2.60;;;16.60;12.60;;;17.06;51.54;101596.59;4953377;28;20885;-73
2022/09/04 07:08:29;;;;;;;6.60;4.60;;;16.80;12.50;;;17.04;51.20;101603.38;4959763;23;21070;-73
2022/09/04 07:11:19;;;;;;;4.50;2.53;;;16.80;12.10;;;17.09;51.73;101615.28;4936218;29;20439;-72
2022/09/04 07:14:26;;;;;;;5.00;3.20;;;16.80;12.40;;;17.42;51.10;101614.91;4942078;29;20538;-73
2022/09/04 07:17:11;;;;;;;4.07;3.30;;;17.00;12.30;;;17.51;50.74;101612.66;4957334;28;20466;-73
2022/09/04 07:19:52;;;;;;;5.53;4.07;;;17.20;11.80;;;17.50;51.15;101605.53;4941639;29;20472;-73
2022/09/04 07:23:02;;;;;;;5.53;3.60;;;17.20;11.90;;;17.37;51.45;101606.53;4967414;28;20551;-71
2022/09/04 07:25:48;;;;;;;2.77;2.20;;;17.20;12.00;;;17.37;51.63;101606.53;4932195;29;20567;-72
2022/09/04 07:29:05;;;;;;;5.13;2.70;;;17.20;12.20;;;17.48;51.67;101610.38;4929009;29;20855;-72
2022/09/04 07:31:44;;;;;;;8.33;2.87;;;17.20;12.50;;;17.56;51.73;101610.91;4931727;29;20471;-71
2022/09/04 07:34:24;;;;;;;4.43;3.20;;;17.40;12.40;;;17.73;51.22;101617.44;4933665;29;20544;-72
2022/09/04 07:37:03;;;;;;;5.07;2.60;;;17.50;12.30;;;17.84;51.05;101615.81;4923744;29;20459;-72
2022/09/04 07:39:46;;;;;;;7.53;3.73;;;17.60;12.80;;;17.65;51.87;101609.56;4933667;29;20444;-71
2022/09/04 07:42:28;;;;;;;3.10;2.50;;;17.60;12.20;;;17.80;51.57;101618.19;4933856;29;20452;-71
2022/09/04 07:45:12;;;;;;;4.63;2.53;;;17.60;12.50;;;17.84;51.43;101612.25;4924668;29;20452;-70
2022/09/04 07:47:47;;;;;;;5.00;2.80;;;17.60;12.20;;;17.86;51.73;101612.84;4928888;29;20420;-71
2022/09/04 07:50:22;;;;;;;4.40;3.53;;;17.70;12.60;;;17.94;51.58;101626.22;4932785;29;20448;-70
2022/09/04 07:53:30;;;;;;;3.10;2.80;;;17.70;12.60;;;18.14;51.46;101613.91;4935983;29;20879;-72
2022/09/04 07:56:10;;;;;;;3.87;2.60;;;17.80;12.80;;;18.30;50.78;101628.78;4936704;29;20459;-71
2022/09/04 07:59:35;;;;;;;3.30;2.60;;;18.00;12.30;;;18.36;50.87;101627.84;4926348;29;20451;-71
2022/09/04 08:02:30;;;;;;;4.40;2.93;;;18.10;12.30;;;18.50;50.87;101634.78;4925396;29;20444;-72
2022/09/04 08:05:23;;;;;;;4.30;3.20;;;18.20;12.60;;;18.47;51.29;101639.91;4928725;29;20879;-71
2022/09/04 08:08:53;;;;;;;5.43;3.23;;;18.30;12.20;;;18.33;51.78;101632.97;4918389;29;20461;-71
2022/09/04 08:11:49;;;;;;;3.67;3.00;;;18.20;12.70;;;18.47;51.31;101635.25;4895757;29;20913;-73
2022/09/04 08:14:31;;;;;;;4.80;4.27;;;18.30;12.70;;;18.79;51.00;101643.16;4929258;29;20838;-71
2022/09/04 08:17:42;;;;;;;4.03;3.23;;;18.40;12.60;;;19.05;50.44;101643.53;4922742;29;20883;-71
2022/09/04 08:20:40;;;;;;;4.13;3.73;;;18.70;12.00;;;18.91;50.50;101641.28;4918121;29;20461;-72
2022/09/04 08:23:40;;;;;;;3.00;2.70;;;18.70;11.70;;;18.76;51.39;101643.66;4936401;29;20440;-73
2022/09/04 08:26:21;;;;;;;11.33;3.70;;;18.60;12.10;;;18.78;51.41;101641.53;4926547;29;20967;-71
2022/09/04 08:29:19;;;;;;;5.87;3.50;;;18.60;12.40;;;18.96;51.27;101642.22;4931716;29;20583;-70
2022/09/04 08:32:04;;;;;;;5.33;3.53;;;18.70;12.70;;;19.32;50.54;101646.56;4924870;29;20477;-71
2022/09/04 08:35:09;;;;;;;4.73;3.27;;;18.90;12.50;;;19.45;50.25;101648.28;4925254;29;20520;-73
2022/09/04 08:37:54;;;;;;;6.37;3.67;;;19.10;12.10;;;19.59;49.66;101648.81;4929072;29;20427;-73
2022/09/04 08:41:08;;;;;;;4.47;3.60;;;19.20;11.60;;;19.76;49.48;101650.53;4936055;29;20422;-71
2022/09/04 08:44:21;;;;;;;6.70;3.80;;;19.40;11.40;;;19.88;49.15;101650.50;4918871;29;20542;-71
2022/09/04 08:47:41;;;;;;;4.27;3.50;;;19.50;10.60;;;20.03;48.50;101653.53;4918616;29;20473;-73
2022/09/04 08:50:46;;;;;;;6.50;3.50;;;19.70;9.90;;;20.00;48.70;101647.69;4937152;29;20449;-71
2022/09/04 08:54:01;;;;;;;6.20;3.90;;;19.80;9.80;;;20.03;48.41;101650.78;4929723;29;20432;-72
2022/09/04 08:56:42;;;;;;;4.13;3.60;;;19.80;9.50;;;20.19;48.28;101654.63;4919573;29;20433;-71
2022/09/04 09:00:05;;;;;;;3.83;2.77;;;19.90;9.50;;;20.31;48.12;101650.78;4926783;29;20870;-71
2022/09/04 09:03:45;;;;;;;3.33;2.87;;;20.00;9.30;;;20.29;48.01;101650.16;4882259;29;20443;-71
2022/09/04 09:07:26;;;;;;;4.90;2.80;;;20.10;8.80;;;20.61;47.53;101668.88;4900380;28;20468;-72
2022/09/04 09:10:36;;;;;;;4.90;3.13;;;20.20;9.10;;;20.93;46.77;101652.59;4938720;29;20444;-71
2022/09/04 09:14:18;;;;;;;5.80;4.00;;;20.40;7.80;;;20.81;46.92;101658.22;4914652;29;20846;-72
2022/09/04 09:17:11;;;;;;;3.67;3.37;;;20.50;7.50;;;20.97;46.33;101646.31;4942181;29;20818;-71
2022/09/04 09:19:46;;;;;;;4.83;3.50;;;20.70;7.20;;;21.35;45.97;101642.75;4938341;29;20413;-71
2022/09/04 09:22:47;;;;;;;3.87;3.43;;;20.90;7.10;;;21.31;45.18;101646.28;4936625;28;20447;-71
2022/09/04 09:25:22;;;;;;;3.87;3.20;;;20.90;5.90;;;21.57;44.84;101648.28;4925615;29;20520;-72
2022/09/04 09:28:41;;;;;;;3.80;3.40;;;21.10;5.70;;;21.71;44.35;101645.94;4937755;28;20439;-70
2022/09/04 09:32:10;;;;;;;4.00;3.10;;;21.20;5.10;;;21.90;44.34;101645.34;4947073;28;20443;-71
2022/09/04 09:35:45;;;;;;;3.30;2.43;;;21.40;4.60;;;21.96;43.77;101644.34;4914078;29;20486;-71
2022/09/04 09:39:17;;;;;;;4.47;4.00;;;21.60;3.80;;;21.78;44.14;101646.59;4923910;29;20433;-71
2022/09/04 09:42:48;;;;;;;2.90;2.53;;;21.50;3.50;;;21.85;43.79;101647.22;4929130;29;20544;-71
2022/09/04 09:45:44;;;;;;;5.93;3.13;;;21.60;3.70;;;21.87;43.98;101645.88;4930791;29;20475;-72
2022/09/04 09:49:19;;;;;;;3.30;2.47;;;21.50;3.50;;;21.69;43.79;101655.31;4935522;29;20476;-71
2022/09/04 09:52:38;;;;;;;4.67;3.67;;;21.40;2.70;;;21.85;43.43;101639.78;4902584;29;20919;-71
2022/09/04 09:55:49;;;;;;;5.23;3.10;;;21.50;2.50;;;22.23;43.14;101640.72;4922519;29;20555;-71
2022/09/04 09:59:20;;;;;;;4.07;2.93;;;21.70;2.60;;;22.39;42.95;101650.81;4906202;29;20457;-71
2022/09/04 10:02:44;;;;;;;4.03;3.27;;;21.90;2.30;;;22.16;43.31;101642.88;4917334;29;20451;-70
2022/09/04 10:05:56;;;;;;;3.37;2.60;;;21.80;1.80;;;22.17;43.08;101639.03;4921276;29;20796;-71
2022/09/04 10:09:30;;;;;;;3.87;2.73;;;21.90;2.10;;;22.17;42.81;101647.31;4928146;29;20457;-71
2022/09/04 10:13:10;;;;;;;2.63;2.40;;;21.80;1.70;;;22.31;42.84;101648.56;4922559;29;20840;-71
2022/09/04 10:16:28;;;;;;;2.93;2.40;;;21.90;1.40;;;22.48;42.62;101638.22;4887994;29;20443;-71
2022/09/04 10:19:43;;;;;;;5.30;2.70;;;22.00;1.30;;;22.33;42.40;101640.81;4929566;29;20472;-70
2022/09/04 10:23:18;;;;;;;3.70;2.97;;;22.20;1.00;;;22.34;42.51;101643.34;4920990;29;20491;-71
2022/09/04 10:26:37;;;;;;;4.40;3.90;;;22.10;1.00;;;22.37;42.46;101648.31;4893964;29;20786;-71
2022/09/04 10:29:43;;;;;;;4.63;2.90;;;22.10;1.00;;;22.41;42.36;101646.69;4927169;29;20471;-71
2022/09/04 10:33:04;;;;;;;3.30;2.40;;;22.10;1.00;;;22.39;42.06;101653.56;4901906;29;20484;-71
2022/09/04 10:36:00;;;;;;;3.77;3.47;;;22.10;1.00;;;22.14;42.73;101639.53;4930075;29;20522;-70
2022/09/04 10:42:06;;;;;;;4.03;2.83;;;21.90;1.00;;;22.79;42.06;101642.91;4928305;29;20879;-71
2022/09/04 10:45:21;;;;;;;4.90;4.10;;;22.20;1.00;;;22.82;41.59;101653.41;4927572;29;20468;-70
2022/09/04 10:48:42;;;;;;;9.87;8.70;;;22.30;1.00;;;23.28;41.67;101642.66;4932822;29;20455;-71
2022/09/04 10:51:51;;;;;;;3.70;3.17;;;22.70;1.00;;;23.16;40.55;101656.66;4914671;29;20987;-70
2022/09/04 10:55:08;;;;;;;4.60;3.43;;;22.80;1.00;;;23.19;40.53;101647.03;4926709;29;20516;-73
2022/09/04 10:58:09;;;;;;;4.57;2.40;;;22.80;1.00;;;22.83;40.36;101655.06;4927814;29;20938;-72
2022/09/04 11:01:02;;;;;;;9.60;3.20;;;22.60;1.00;;;22.94;40.80;101651.28;4926097;29;20443;-72
2022/09/04 11:04:02;;;;;;;5.97;3.03;;;22.60;1.00;;;23.11;40.94;101651.09;4926121;29;20456;-71
2022/09/04 11:07:17;;;;;;;3.63;2.63;;;22.70;1.00;;;23.31;40.20;101651.22;4933133;29;20533;-70
2022/09/04 11:10:18;;;;;;;4.70;3.30;;;22.80;1.00;;;23.41;39.54;101647.66;4923256;29;20441;-71
2022/09/04 11:13:41;;;;;;;5.30;3.63;;;22.90;1.00;;;23.61;39.25;101647.78;4927871;29;20472;-72
2022/09/04 11:16:53;;;;;;;4.67;3.40;;;23.00;1.00;;;23.89;39.17;101651.19;4912740;29;20459;-70
2022/09/04 11:19:59;;;;;;;3.40;3.10;;;23.30;1.00;;;23.81;39.19;101649.78;4928750;29;20945;-71
2022/09/04 11:23:39;;;;;;;10.60;3.50;;;23.30;1.00;;;23.72;39.40;101646.69;4933476;29;20540;-71
2022/09/04 11:27:00;;;;;;;3.83;3.00;;;23.30;1.00;;;23.60;39.53;101657.16;4889658;28;20473;-70
2022/09/04 11:29:54;;;;;;;4.20;2.90;;;23.30;1.00;;;23.50;39.01;101643.31;4933368;29;20456;-72
2022/09/04 11:33:21;;;;;;;3.20;2.67;;;23.20;1.00;;;23.68;39.35;101647.50;4923559;29;20523;-71
2022/09/04 11:36:35;;;;;;;3.20;2.73;;;23.30;1.00;;;24.06;38.78;101640.72;4912901;29;21065;-72
2022/09/04 11:39:51;;;;;;;3.73;2.50;;;23.40;1.00;;;24.03;39.01;101636.56;4867412;29;20957;-71
2022/09/04 11:42:40;;;;;;;4.00;3.07;;;23.60;1.00;;;24.29;38.76;101642.16;4918497;29;20854;-72
2022/09/04 11:45:57;;;;;;;2.60;2.40;;;23.70;1.00;;;24.21;38.56;101629.69;4924411;29;20471;-72
2022/09/04 11:49:21;;;;;;;3.50;2.77;;;23.80;1.00;;;23.90;39.41;101627.97;4924577;29;20449;-72
2022/09/04 11:52:14;;;;;;;4.20;2.83;;;23.60;1.00;;;23.92;39.38;101629.34;4874045;29;20443;-72
2022/09/04 11:55:15;;;;;;;3.20;2.80;;;23.50;1.00;;;24.03;39.34;101613.59;4932509;29;20832;-71
2022/09/04 11:58:08;;;;;;;7.30;2.60;;;23.60;1.00;;;23.99;38.93;101618.88;4928161;29;20536;-71
2022/09/04 12:00:58;;;;;;;3.47;2.80;;;23.70;1.00;;;23.90;39.25;101614.16;4920496;29;21001;-71
2022/09/04 12:04:22;;;;;;;4.53;3.53;;;23.50;1.00;;;24.16;38.71;101629.66;4930594;29;20988;-71
2022/09/04 12:07:14;;;;;;;7.87;3.30;;;23.70;1.00;;;24.06;38.69;101618.59;4889391;29;20524;-71
2022/09/04 12:10:23;;;;;;;4.00;2.93;;;23.70;1.00;;;24.04;39.18;101620.81;4930885;29;20909;-71
2022/09/04 12:13:42;;;;;;;3.57;2.90;;;23.60;1.00;;;24.31;38.65;101615.88;4913948;29;20440;-70
2022/09/04 12:17:07;;;;;;;3.27;2.70;;;23.70;1.00;;;23.84;39.19;101616.06;4918669;29;20428;-71
2022/09/04 12:20:29;;;;;;;4.53;3.00;;;23.70;1.00;;;23.97;39.37;101621.06;4938457;29;20450;-70
2022/09/04 12:23:32;;;;;;;3.10;2.80;;;23.60;1.00;;;24.19;38.84;101618.94;4921017;29;21024;-72
2022/09/04 12:26:48;;;;;;;3.73;3.27;;;23.70;1.00;;;24.05;38.74;101619.72;4929122;29;20846;-71